^^
Meteo Knjazevac Station Historical Data
Daily Summary for July 9, 2021 Units:  English    Metric   Both
Daily Weekly Monthly Yearly Custom
  High: Low: Average:
Temperature: 59.7 °F 52.7 °F 55.1 °F
Dew Point: 58.3 °F 51.6 °F 53.8 °F
Humidity: 99% 91% 96%
Wind Speed: 3mph 0mph 1.2mph
Wind Gust: 6mph - -
Wind- - West
Pressure: 30.07 in 30.05 in -
Precipitation: 0.00 in    
Historical Graphs
 
 
Tabular Data for July 9, 2021
Time Temperature Dew Point Pressure Wind Wind Speed Wind Gust Humidity Rainfall Rate (Hourly) solar Conditions
00:00 57.4 °F 54.8 °F 30.07 in West 2 mph 5 mph 91% 0.00 in 0 W/m2
00:10 57.1 °F 54.5 °F 30.07 in West 3 mph 6 mph 91% 0.00 in 0 W/m2
00:20 56.8 °F 54.2 °F 30.07 in WSW 2 mph 5 mph 91% 0.00 in 0 W/m2
00:30 56.3 °F 53.7 °F 30.07 in WSW 2 mph 5 mph 91% 0.00 in 0 W/m2
00:40 55.9 °F 53.9 °F 30.07 in West 3 mph 5 mph 93% 0.00 in 0 W/m2
00:50 55.8 °F 54.1 °F 30.06 in WNW 3 mph 6 mph 94% 0.00 in 0 W/m2
01:00 55.9 °F 54.2 °F 30.06 in WNW 2 mph 5 mph 94% 0.00 in 0 W/m2
01:10 55.9 °F 54.2 °F 30.06 in West 2 mph 4 mph 94% 0.00 in 0 W/m2
01:20 55.9 °F 54.2 °F 30.06 in WSW 1 mph 3 mph 94% 0.00 in 0 W/m2
01:30 55.6 °F 53.9 °F 30.06 in SW 2 mph 3 mph 94% 0.00 in 0 W/m2
01:40 55.6 °F 53.9 °F 30.06 in WSW 3 mph 5 mph 94% 0.00 in 0 W/m2
01:50 55.6 °F 54.2 °F 30.06 in West 3 mph 5 mph 95% 0.00 in 0 W/m2
02:00 55.6 °F 54.2 °F 30.06 in Calm   4 mph 95% 0.00 in 0 W/m2
02:10 55.8 °F 54.3 °F 30.06 in SW 1 mph 2 mph 95% 0.00 in 0 W/m2
02:20 55.6 °F 54.2 °F 30.06 in WSW 1 mph 2 mph 95% 0.00 in 0 W/m2
02:30 55.4 °F 54 °F 30.06 in WNW 1 mph 2 mph 95% 0.00 in 0 W/m2
02:40 55.4 °F 54 °F 30.06 in Calm   3 mph 95% 0.00 in 0 W/m2
02:50 55.4 °F 54 °F 30.06 in WNW 1 mph 2 mph 95% 0.00 in 0 W/m2
03:00 55.2 °F 53.8 °F 30.06 in Calm   2 mph 95% 0.00 in 0 W/m2
03:10 55 °F 53.6 °F 30.06 in Calm   1 mph 95% 0.00 in 0 W/m2
03:20 55 °F 53.6 °F 30.06 in Calm   1 mph 95% 0.00 in 0 W/m2
03:30 55 °F 53.6 °F 30.06 in Calm   1 mph 95% 0.00 in 0 W/m2
03:40 54.9 °F 53.2 °F 30.05 in West 1 mph 2 mph 94% 0.00 in 0 W/m2
03:50 54.3 °F 52.6 °F 30.05 in Calm   2 mph 94% 0.00 in 0 W/m2
04:00 54 °F 52.6 °F 30.06 in West 2 mph 3 mph 95% 0.00 in 0 W/m2
04:10 53.8 °F 52.4 °F 30.05 in West 2 mph 4 mph 95% 0.00 in 0 W/m2
04:20 53.8 °F 52.7 °F 30.06 in NW 1 mph 3 mph 96% 0.00 in 0 W/m2
04:30 53.4 °F 52.3 °F 30.05 in Calm   3 mph 96% 0.00 in 0 W/m2
04:40 53.4 °F 52.3 °F 30.05 in WSW 1 mph 2 mph 96% 0.00 in 0 W/m2
04:50 53.1 °F 52 °F 30.06 in SW 1 mph 2 mph 96% 0.00 in 3 W/m2
05:00 52.9 °F 51.8 °F 30.06 in West 1 mph 2 mph 96% 0.00 in 7 W/m2
05:10 53.1 °F 52.5 °F 30.06 in West 2 mph 5 mph 98% 0.00 in 14 W/m2
05:20 53.1 °F 52.5 °F 30.06 in WNW 1 mph 3 mph 98% 0.00 in 24 W/m2
05:30 52.9 °F 51.8 °F 30.06 in Calm   2 mph 96% 0.00 in 35 W/m2
05:40 52.9 °F 51.8 °F 30.06 in West 1 mph 2 mph 96% 0.00 in 47 W/m2
05:50 52.7 °F 51.6 °F 30.07 in West 1 mph 2 mph 96% 0.00 in 51 W/m2
06:00 52.9 °F 52.3 °F 30.06 in Calm   2 mph 98% 0.00 in 60 W/m2
06:10 53.1 °F 52.5 °F 30.07 in Calm   2 mph 98% 0.00 in 116 W/m2
06:20 53.4 °F 52.9 °F 30.07 in Calm   2 mph 98% 0.00 in 141 W/m2
06:30 53.6 °F 53 °F 30.07 in WNW 1 mph 2 mph 98% 0.00 in 162 W/m2
06:40 54 °F 53.7 °F 30.06 in NW 1 mph 2 mph 99% 0.00 in 192 W/m2
06:50 54.5 °F 54.2 °F 30.06 in West 2 mph 4 mph 99% 0.00 in 224 W/m2
07:00 55 °F 54.8 °F 30.06 in NW 1 mph 3 mph 99% 0.00 in 256 W/m2
07:10 55.6 °F 55.3 °F 30.06 in Calm   2 mph 99% 0.00 in 286 W/m2
07:20 56.3 °F 56 °F 30.06 in West 2 mph 2 mph 99% 0.00 in 317 W/m2
07:30 57.2 °F 56.9 °F 30.06 in WSW 1 mph 3 mph 99% 0.00 in 356 W/m2
07:40 57.9 °F 57.4 °F 30.06 in West 2 mph 5 mph 98% 0.00 in 393 W/m2
07:50 58.8 °F 57.4 °F 30.06 in West 1 mph 5 mph 95% 0.00 in 425 W/m2
08:00 59.7 °F 58.3 °F 30.06 in WSW 2 mph 4 mph 95% 0.00 in 459 W/m2
Knjazevac, Serbia
Compliments of Weather Underground - 2 mb